sensor_id;sensor_type;location;lat;lon;timestamp;P1;durP1;ratioP1;P2;durP2;ratioP2
32236;SDS011;18726;44.732;10.550;2022-09-09T00:02:22;15.77;;;12.80;;
32236;SDS011;18726;44.732;10.550;2022-09-09T00:05:32;13.10;;;11.88;;
32236;SDS011;18726;44.732;10.550;2022-09-09T00:08:42;14.20;;;12.43;;
32236;SDS011;18726;44.732;10.550;2022-09-09T00:11:58;12.27;;;10.95;;
32236;SDS011;18726;44.732;10.550;2022-09-09T00:15:11;10.90;;;9.90;;
32236;SDS011;18726;44.732;10.550;2022-09-09T00:18:23;13.50;;;10.52;;
32236;SDS011;18726;44.732;10.550;2022-09-09T00:21:37;14.07;;;12.43;;
32236;SDS011;18726;44.732;10.550;2022-09-09T00:24:53;20.20;;;14.65;;
32236;SDS011;18726;44.732;10.550;2022-09-09T00:27:59;16.73;;;15.02;;
32236;SDS011;18726;44.732;10.550;2022-09-09T00:31:13;15.18;;;13.60;;
32236;SDS011;18726;44.732;10.550;2022-09-09T00:34:24;27.52;;;24.23;;
32236;SDS011;18726;44.732;10.550;2022-09-09T00:37:30;22.05;;;19.48;;
32236;SDS011;18726;44.732;10.550;2022-09-09T00:40:37;16.38;;;14.68;;
32236;SDS011;18726;44.732;10.550;2022-09-09T00:57:57;39.00;;;33.63;;
32236;SDS011;18726;44.732;10.550;2022-09-09T01:04:16;23.67;;;20.88;;
32236;SDS011;18726;44.732;10.550;2022-09-09T01:07:29;18.83;;;16.35;;
32236;SDS011;18726;44.732;10.550;2022-09-09T01:13:55;16.67;;;13.23;;
32236;SDS011;18726;44.732;10.550;2022-09-09T01:17:14;17.27;;;13.57;;
32236;SDS011;18726;44.732;10.550;2022-09-09T01:20:53;12.98;;;11.73;;
32236;SDS011;18726;44.732;10.550;2022-09-09T01:28:01;20.08;;;11.70;;
32236;SDS011;18726;44.732;10.550;2022-09-09T01:31:09;13.15;;;11.80;;
32236;SDS011;18726;44.732;10.550;2022-09-09T01:34:21;15.23;;;11.88;;
32236;SDS011;18726;44.732;10.550;2022-09-09T01:37:26;16.73;;;12.15;;
32236;SDS011;18726;44.732;10.550;2022-09-09T01:40:30;13.10;;;11.70;;
32236;SDS011;18726;44.732;10.550;2022-09-09T01:43:34;12.90;;;11.60;;
32236;SDS011;18726;44.732;10.550;2022-09-09T01:46:38;10.90;;;9.93;;
32236;SDS011;18726;44.732;10.550;2022-09-09T01:49:48;13.30;;;9.07;;
32236;SDS011;18726;44.732;10.550;2022-09-09T01:52:59;10.88;;;9.77;;
32236;SDS011;18726;44.732;10.550;2022-09-09T02:02:36;14.75;;;9.90;;
32236;SDS011;18726;44.732;10.550;2022-09-09T02:05:55;10.27;;;8.70;;
32236;SDS011;18726;44.732;10.550;2022-09-09T02:09:10;12.50;;;9.98;;
32236;SDS011;18726;44.732;10.550;2022-09-09T02:12:17;10.20;;;9.20;;
32236;SDS011;18726;44.732;10.550;2022-09-09T02:19:11;9.15;;;8.35;;
32236;SDS011;18726;44.732;10.550;2022-09-09T02:22:34;7.70;;;7.00;;
32236;SDS011;18726;44.732;10.550;2022-09-09T02:25:43;6.75;;;6.15;;
32236;SDS011;18726;44.732;10.550;2022-09-09T02:28:57;7.07;;;6.15;;
32236;SDS011;18726;44.732;10.550;2022-09-09T02:32:06;5.78;;;4.70;;
32236;SDS011;18726;44.732;10.550;2022-09-09T02:35:17;6.10;;;5.47;;
32236;SDS011;18726;44.732;10.550;2022-09-09T02:38:26;7.35;;;5.72;;
32236;SDS011;18726;44.732;10.550;2022-09-09T02:41:42;5.63;;;5.10;;
32236;SDS011;18726;44.732;10.550;2022-09-09T02:44:46;7.88;;;6.25;;
32236;SDS011;18726;44.732;10.550;2022-09-09T02:51:24;8.00;;;7.20;;
32236;SDS011;18726;44.732;10.550;2022-09-09T02:54:37;5.90;;;5.18;;
32236;SDS011;18726;44.732;10.550;2022-09-09T02:57:45;9.07;;;7.60;;
32236;SDS011;18726;44.732;10.550;2022-09-09T03:00:52;7.63;;;6.50;;
32236;SDS011;18726;44.732;10.550;2022-09-09T03:03:57;9.88;;;8.43;;
32236;SDS011;18726;44.732;10.550;2022-09-09T03:07:01;7.50;;;6.65;;
32236;SDS011;18726;44.732;10.550;2022-09-09T03:10:07;10.15;;;8.70;;
32236;SDS011;18726;44.732;10.550;2022-09-09T03:13:12;10.52;;;9.60;;
32236;SDS011;18726;44.732;10.550;2022-09-09T03:16:19;10.00;;;9.02;;
32236;SDS011;18726;44.732;10.550;2022-09-09T03:19:26;9.20;;;8.35;;
32236;SDS011;18726;44.732;10.550;2022-09-09T03:22:31;8.45;;;6.43;;
32236;SDS011;18726;44.732;10.550;2022-09-09T03:25:37;8.68;;;7.88;;
32236;SDS011;18726;44.732;10.550;2022-09-09T03:28:42;7.97;;;7.28;;
32236;SDS011;18726;44.732;10.550;2022-09-09T03:31:50;6.80;;;6.20;;
32236;SDS011;18726;44.732;10.550;2022-09-09T03:34:55;8.43;;;5.97;;
32236;SDS011;18726;44.732;10.550;2022-09-09T03:37:59;9.82;;;5.38;;
32236;SDS011;18726;44.732;10.550;2022-09-09T03:41:05;7.35;;;5.63;;
32236;SDS011;18726;44.732;10.550;2022-09-09T03:44:09;5.30;;;4.90;;
32236;SDS011;18726;44.732;10.550;2022-09-09T03:47:20;6.88;;;5.20;;
32236;SDS011;18726;44.732;10.550;2022-09-09T03:50:32;7.32;;;5.03;;
32236;SDS011;18726;44.732;10.550;2022-09-09T03:53:36;5.88;;;5.40;;
32236;SDS011;18726;44.732;10.550;2022-09-09T03:56:41;5.78;;;5.28;;
32236;SDS011;18726;44.732;10.550;2022-09-09T03:59:47;6.22;;;5.60;;
32236;SDS011;18726;44.732;10.550;2022-09-09T04:02:50;7.13;;;6.47;;
32236;SDS011;18726;44.732;10.550;2022-09-09T04:05:58;7.68;;;5.55;;
32236;SDS011;18726;44.732;10.550;2022-09-09T04:09:04;7.80;;;6.15;;
32236;SDS011;18726;44.732;10.550;2022-09-09T04:12:09;6.30;;;5.70;;
32236;SDS011;18726;44.732;10.550;2022-09-09T04:15:16;8.77;;;5.70;;
32236;SDS011;18726;44.732;10.550;2022-09-09T04:18:22;6.28;;;5.72;;
32236;SDS011;18726;44.732;10.550;2022-09-09T04:21:27;6.90;;;6.25;;
32236;SDS011;18726;44.732;10.550;2022-09-09T04:24:30;6.32;;;5.72;;
32236;SDS011;18726;44.732;10.550;2022-09-09T04:27:36;6.55;;;5.38;;
32236;SDS011;18726;44.732;10.550;2022-09-09T04:30:40;6.60;;;5.53;;
32236;SDS011;18726;44.732;10.550;2022-09-09T04:33:44;5.82;;;5.28;;
32236;SDS011;18726;44.732;10.550;2022-09-09T04:36:48;7.13;;;6.53;;
32236;SDS011;18726;44.732;10.550;2022-09-09T04:39:51;7.10;;;6.47;;
32236;SDS011;18726;44.732;10.550;2022-09-09T04:42:59;8.27;;;7.15;;
32236;SDS011;18726;44.732;10.550;2022-09-09T04:46:03;5.93;;;5.43;;
32236;SDS011;18726;44.732;10.550;2022-09-09T04:49:08;4.57;;;4.15;;
32236;SDS011;18726;44.732;10.550;2022-09-09T04:52:11;8.75;;;6.63;;
32236;SDS011;18726;44.732;10.550;2022-09-09T04:55:15;6.43;;;5.40;;
32236;SDS011;18726;44.732;10.550;2022-09-09T04:58:21;8.52;;;4.20;;
32236;SDS011;18726;44.732;10.550;2022-09-09T05:01:26;5.68;;;4.57;;
32236;SDS011;18726;44.732;10.550;2022-09-09T05:04:36;5.45;;;4.90;;
32236;SDS011;18726;44.732;10.550;2022-09-09T05:07:40;10.07;;;6.18;;
32236;SDS011;18726;44.732;10.550;2022-09-09T05:10:44;7.72;;;5.90;;
32236;SDS011;18726;44.732;10.550;2022-09-09T05:13:50;6.95;;;6.05;;
32236;SDS011;18726;44.732;10.550;2022-09-09T05:16:56;6.85;;;6.15;;
32236;SDS011;18726;44.732;10.550;2022-09-09T05:20:01;9.15;;;6.32;;
32236;SDS011;18726;44.732;10.550;2022-09-09T05:23:08;5.63;;;5.03;;
32236;SDS011;18726;44.732;10.550;2022-09-09T05:26:15;6.00;;;5.38;;
32236;SDS011;18726;44.732;10.550;2022-09-09T05:29:22;3.78;;;3.35;;
32236;SDS011;18726;44.732;10.550;2022-09-09T05:32:26;3.95;;;3.55;;
32236;SDS011;18726;44.732;10.550;2022-09-09T05:35:30;4.82;;;3.65;;
32236;SDS011;18726;44.732;10.550;2022-09-09T05:38:34;4.20;;;3.83;;
32236;SDS011;18726;44.732;10.550;2022-09-09T05:41:39;10.50;;;4.75;;
32236;SDS011;18726;44.732;10.550;2022-09-09T05:44:43;10.25;;;5.78;;
32236;SDS011;18726;44.732;10.550;2022-09-09T05:47:51;6.70;;;4.45;;
32236;SDS011;18726;44.732;10.550;2022-09-09T05:50:56;7.85;;;4.22;;
32236;SDS011;18726;44.732;10.550;2022-09-09T05:54:00;6.00;;;4.65;;
32236;SDS011;18726;44.732;10.550;2022-09-09T05:57:08;6.35;;;4.35;;
32236;SDS011;18726;44.732;10.550;2022-09-09T06:00:11;13.98;;;4.53;;
32236;SDS011;18726;44.732;10.550;2022-09-09T06:03:21;5.27;;;3.33;;
32236;SDS011;18726;44.732;10.550;2022-09-09T06:06:32;4.43;;;3.53;;
32236;SDS011;18726;44.732;10.550;2022-09-09T06:09:42;8.43;;;3.30;;
32236;SDS011;18726;44.732;10.550;2022-09-09T06:12:46;4.75;;;3.70;;
32236;SDS011;18726;44.732;10.550;2022-09-09T06:15:51;6.35;;;3.58;;
32236;SDS011;18726;44.732;10.550;2022-09-09T06:18:56;5.47;;;3.25;;
32236;SDS011;18726;44.732;10.550;2022-09-09T06:22:02;4.78;;;2.70;;
32236;SDS011;18726;44.732;10.550;2022-09-09T06:25:09;6.65;;;3.80;;
32236;SDS011;18726;44.732;10.550;2022-09-09T06:28:13;5.93;;;3.60;;
32236;SDS011;18726;44.732;10.550;2022-09-09T06:31:17;3.58;;;3.05;;
32236;SDS011;18726;44.732;10.550;2022-09-09T06:34:26;4.75;;;3.50;;
32236;SDS011;18726;44.732;10.550;2022-09-09T06:37:32;8.77;;;3.63;;
32236;SDS011;18726;44.732;10.550;2022-09-09T06:40:36;4.68;;;3.45;;
32236;SDS011;18726;44.732;10.550;2022-09-09T06:43:40;6.93;;;3.75;;
32236;SDS011;18726;44.732;10.550;2022-09-09T06:46:44;4.82;;;4.00;;
32236;SDS011;18726;44.732;10.550;2022-09-09T06:49:51;7.60;;;4.55;;
32236;SDS011;18726;44.732;10.550;2022-09-09T06:52:55;5.20;;;4.03;;
32236;SDS011;18726;44.732;10.550;2022-09-09T06:56:02;14.40;;;8.90;;
32236;SDS011;18726;44.732;10.550;2022-09-09T06:59:22;25.00;;;15.32;;
32236;SDS011;18726;44.732;10.550;2022-09-09T07:02:28;19.77;;;12.82;;
32236;SDS011;18726;44.732;10.550;2022-09-09T07:05:32;19.73;;;13.20;;
32236;SDS011;18726;44.732;10.550;2022-09-09T07:08:36;25.70;;;12.48;;
32236;SDS011;18726;44.732;10.550;2022-09-09T07:11:41;21.10;;;14.02;;
32236;SDS011;18726;44.732;10.550;2022-09-09T07:14:47;25.00;;;14.32;;
32236;SDS011;18726;44.732;10.550;2022-09-09T07:17:51;25.27;;;13.93;;
32236;SDS011;18726;44.732;10.550;2022-09-09T07:20:56;21.88;;;13.82;;
32236;SDS011;18726;44.732;10.550;2022-09-09T07:24:02;19.52;;;14.38;;
32236;SDS011;18726;44.732;10.550;2022-09-09T07:27:06;22.30;;;15.25;;
32236;SDS011;18726;44.732;10.550;2022-09-09T07:30:10;23.08;;;14.77;;
32236;SDS011;18726;44.732;10.550;2022-09-09T07:33:14;20.58;;;16.27;;
32236;SDS011;18726;44.732;10.550;2022-09-09T07:36:19;20.92;;;16.17;;
32236;SDS011;18726;44.732;10.550;2022-09-09T07:39:25;27.80;;;17.40;;
32236;SDS011;18726;44.732;10.550;2022-09-09T07:42:31;29.45;;;19.75;;
32236;SDS011;18726;44.732;10.550;2022-09-09T07:45:35;27.85;;;20.20;;
32236;SDS011;18726;44.732;10.550;2022-09-09T07:48:42;32.35;;;21.90;;
32236;SDS011;18726;44.732;10.550;2022-09-09T07:51:48;30.27;;;20.98;;
32236;SDS011;18726;44.732;10.550;2022-09-09T07:54:53;29.73;;;19.02;;
32236;SDS011;18726;44.732;10.550;2022-09-09T07:57:57;24.67;;;14.63;;
32236;SDS011;18726;44.732;10.550;2022-09-09T08:01:05;26.38;;;18.90;;
32236;SDS011;18726;44.732;10.550;2022-09-09T08:04:33;32.53;;;21.73;;
32236;SDS011;18726;44.732;10.550;2022-09-09T08:07:39;34.75;;;20.45;;
32236;SDS011;18726;44.732;10.550;2022-09-09T08:10:42;30.02;;;20.17;;
32236;SDS011;18726;44.732;10.550;2022-09-09T08:13:47;35.85;;;23.77;;
32236;SDS011;18726;44.732;10.550;2022-09-09T08:16:51;30.27;;;18.58;;
32236;SDS011;18726;44.732;10.550;2022-09-09T08:19:59;32.47;;;19.63;;
32236;SDS011;18726;44.732;10.550;2022-09-09T08:23:08;34.35;;;23.90;;
32236;SDS011;18726;44.732;10.550;2022-09-09T08:26:22;32.33;;;18.45;;
32236;SDS011;18726;44.732;10.550;2022-09-09T08:29:31;23.00;;;16.58;;
32236;SDS011;18726;44.732;10.550;2022-09-09T08:32:35;24.52;;;17.13;;
32236;SDS011;18726;44.732;10.550;2022-09-09T08:35:39;22.42;;;15.68;;
32236;SDS011;18726;44.732;10.550;2022-09-09T08:38:52;22.63;;;16.55;;
32236;SDS011;18726;44.732;10.550;2022-09-09T08:48:29;23.48;;;17.13;;
32236;SDS011;18726;44.732;10.550;2022-09-09T08:51:49;25.42;;;20.13;;
32236;SDS011;18726;44.732;10.550;2022-09-09T08:55:10;26.42;;;21.73;;
32236;SDS011;18726;44.732;10.550;2022-09-09T08:58:29;24.55;;;15.93;;
32236;SDS011;18726;44.732;10.550;2022-09-09T09:12:37;27.85;;;18.27;;
32236;SDS011;18726;44.732;10.550;2022-09-09T09:15:46;19.33;;;15.70;;
32236;SDS011;18726;44.732;10.550;2022-09-09T09:18:53;21.50;;;16.00;;
32236;SDS011;18726;44.732;10.550;2022-09-09T09:25:23;20.00;;;14.25;;
32236;SDS011;18726;44.732;10.550;2022-09-09T09:28:37;22.98;;;16.23;;
32236;SDS011;18726;44.732;10.550;2022-09-09T09:31:51;20.88;;;14.65;;
32236;SDS011;18726;44.732;10.550;2022-09-09T09:35:01;19.38;;;15.55;;
32236;SDS011;18726;44.732;10.550;2022-09-09T09:38:31;23.25;;;17.38;;
32236;SDS011;18726;44.732;10.550;2022-09-09T09:41:38;27.92;;;18.52;;
32236;SDS011;18726;44.732;10.550;2022-09-09T09:44:45;16.33;;;12.18;;
32236;SDS011;18726;44.732;10.550;2022-09-09T09:48:03;19.73;;;13.65;;
32236;SDS011;18726;44.732;10.550;2022-09-09T09:51:11;15.07;;;11.05;;
32236;SDS011;18726;44.732;10.550;2022-09-09T09:57:34;17.17;;;15.13;;
32236;SDS011;18726;44.732;10.550;2022-09-09T10:00:47;13.68;;;11.02;;
32236;SDS011;18726;44.732;10.550;2022-09-09T10:03:54;20.08;;;12.65;;
32236;SDS011;18726;44.732;10.550;2022-09-09T10:07:09;13.93;;;11.73;;
32236;SDS011;18726;44.732;10.550;2022-09-09T10:10:20;14.15;;;11.43;;
32236;SDS011;18726;44.732;10.550;2022-09-09T10:13:38;20.17;;;14.70;;
32236;SDS011;18726;44.732;10.550;2022-09-09T10:16:50;17.02;;;10.38;;
32236;SDS011;18726;44.732;10.550;2022-09-09T10:26:42;12.43;;;9.35;;
32236;SDS011;18726;44.732;10.550;2022-09-09T10:30:12;12.15;;;7.38;;
32236;SDS011;18726;44.732;10.550;2022-09-09T10:44:06;6.60;;;4.97;;
32236;SDS011;18726;44.732;10.550;2022-09-09T10:47:29;9.80;;;4.90;;
32236;SDS011;18726;44.732;10.550;2022-09-09T10:57:39;10.27;;;5.45;;
32236;SDS011;18726;44.732;10.550;2022-09-09T11:00:47;8.43;;;6.68;;
32236;SDS011;18726;44.732;10.550;2022-09-09T11:04:22;8.18;;;6.10;;
32236;SDS011;18726;44.732;10.550;2022-09-09T11:07:51;7.50;;;6.63;;
32236;SDS011;18726;44.732;10.550;2022-09-09T11:11:24;10.48;;;7.07;;
32236;SDS011;18726;44.732;10.550;2022-09-09T11:14:41;8.20;;;6.95;;
32236;SDS011;18726;44.732;10.550;2022-09-09T11:17:50;8.07;;;6.93;;
32236;SDS011;18726;44.732;10.550;2022-09-09T11:21:09;10.77;;;7.25;;
32236;SDS011;18726;44.732;10.550;2022-09-09T11:24:23;12.85;;;6.35;;
32236;SDS011;18726;44.732;10.550;2022-09-09T11:27:37;8.02;;;5.53;;
32236;SDS011;18726;44.732;10.550;2022-09-09T11:31:10;6.30;;;5.25;;
32236;SDS011;18726;44.732;10.550;2022-09-09T11:34:27;9.88;;;5.10;;
32236;SDS011;18726;44.732;10.550;2022-09-09T11:41:19;8.82;;;3.03;;
32236;SDS011;18726;44.732;10.550;2022-09-09T11:44:28;5.47;;;2.65;;
32236;SDS011;18726;44.732;10.550;2022-09-09T11:47:33;5.43;;;3.85;;
32236;SDS011;18726;44.732;10.550;2022-09-09T11:50:37;8.25;;;3.28;;
32236;SDS011;18726;44.732;10.550;2022-09-09T11:53:51;6.20;;;2.40;;
32236;SDS011;18726;44.732;10.550;2022-09-09T11:56:55;3.05;;;2.08;;
32236;SDS011;18726;44.732;10.550;2022-09-09T12:00:00;3.20;;;2.35;;
32236;SDS011;18726;44.732;10.550;2022-09-09T12:03:04;6.20;;;2.75;;
32236;SDS011;18726;44.732;10.550;2022-09-09T12:06:19;6.57;;;2.65;;
32236;SDS011;18726;44.732;10.550;2022-09-09T12:09:52;7.07;;;2.53;;
32236;SDS011;18726;44.732;10.550;2022-09-09T12:13:33;6.00;;;2.75;;
32236;SDS011;18726;44.732;10.550;2022-09-09T12:16:31;6.00;;;2.78;;
32236;SDS011;18726;44.732;10.550;2022-09-09T12:19:41;5.85;;;2.75;;
32236;SDS011;18726;44.732;10.550;2022-09-09T12:22:58;7.65;;;2.97;;
32236;SDS011;18726;44.732;10.550;2022-09-09T12:29:45;5.63;;;2.20;;
32236;SDS011;18726;44.732;10.550;2022-09-09T12:33:10;4.88;;;2.47;;
32236;SDS011;18726;44.732;10.550;2022-09-09T12:36:20;4.88;;;2.85;;
32236;SDS011;18726;44.732;10.550;2022-09-09T12:39:33;3.28;;;2.63;;
32236;SDS011;18726;44.732;10.550;2022-09-09T12:42:41;5.82;;;2.25;;
32236;SDS011;18726;44.732;10.550;2022-09-09T12:45:44;5.65;;;3.08;;
32236;SDS011;18726;44.732;10.550;2022-09-09T12:48:48;4.20;;;2.17;;
32236;SDS011;18726;44.732;10.550;2022-09-09T12:51:53;4.65;;;2.53;;
32236;SDS011;18726;44.732;10.550;2022-09-09T12:54:58;5.57;;;2.55;;
32236;SDS011;18726;44.732;10.550;2022-09-09T12:58:04;4.53;;;2.45;;
32236;SDS011;18726;44.732;10.550;2022-09-09T13:01:17;4.97;;;2.90;;
32236;SDS011;18726;44.732;10.550;2022-09-09T13:04:24;5.07;;;3.63;;
32236;SDS011;18726;44.732;10.550;2022-09-09T13:07:28;5.55;;;2.88;;
32236;SDS011;18726;44.732;10.550;2022-09-09T13:10:39;4.45;;;2.80;;
32236;SDS011;18726;44.732;10.550;2022-09-09T13:13:54;7.55;;;2.33;;
32236;SDS011;18726;44.732;10.550;2022-09-09T13:17:00;5.47;;;2.53;;
32236;SDS011;18726;44.732;10.550;2022-09-09T13:20:16;3.97;;;2.05;;
32236;SDS011;18726;44.732;10.550;2022-09-09T13:23:21;5.50;;;2.50;;
32236;SDS011;18726;44.732;10.550;2022-09-09T13:26:26;2.50;;;1.95;;
32236;SDS011;18726;44.732;10.550;2022-09-09T13:29:30;4.38;;;2.20;;
32236;SDS011;18726;44.732;10.550;2022-09-09T13:32:35;3.13;;;2.20;;
32236;SDS011;18726;44.732;10.550;2022-09-09T13:35:56;6.30;;;2.70;;
32236;SDS011;18726;44.732;10.550;2022-09-09T13:39:03;9.60;;;2.72;;
32236;SDS011;18726;44.732;10.550;2022-09-09T13:42:19;5.53;;;3.28;;
32236;SDS011;18726;44.732;10.550;2022-09-09T13:45:28;7.03;;;2.53;;
32236;SDS011;18726;44.732;10.550;2022-09-09T13:48:32;5.60;;;2.70;;
32236;SDS011;18726;44.732;10.550;2022-09-09T13:51:41;6.95;;;2.88;;
32236;SDS011;18726;44.732;10.550;2022-09-09T13:54:50;6.43;;;2.35;;
32236;SDS011;18726;44.732;10.550;2022-09-09T13:58:00;4.55;;;2.28;;
32236;SDS011;18726;44.732;10.550;2022-09-09T14:01:05;7.43;;;2.40;;
32236;SDS011;18726;44.732;10.550;2022-09-09T14:04:09;5.60;;;2.17;;
32236;SDS011;18726;44.732;10.550;2022-09-09T14:07:14;2.42;;;2.10;;
32236;SDS011;18726;44.732;10.550;2022-09-09T14:10:19;5.03;;;2.47;;
32236;SDS011;18726;44.732;10.550;2022-09-09T14:13:24;2.20;;;1.85;;
32236;SDS011;18726;44.732;10.550;2022-09-09T14:16:28;2.50;;;2.28;;
32236;SDS011;18726;44.732;10.550;2022-09-09T14:19:32;2.92;;;2.25;;
32236;SDS011;18726;44.732;10.550;2022-09-09T14:22:36;5.60;;;2.72;;
32236;SDS011;18726;44.732;10.550;2022-09-09T14:25:40;3.72;;;2.50;;
32236;SDS011;18726;44.732;10.550;2022-09-09T14:28:45;3.85;;;2.30;;
32236;SDS011;18726;44.732;10.550;2022-09-09T14:31:49;3.53;;;2.50;;
32236;SDS011;18726;44.732;10.550;2022-09-09T14:34:52;5.25;;;2.70;;
32236;SDS011;18726;44.732;10.550;2022-09-09T14:37:56;3.72;;;2.30;;
32236;SDS011;18726;44.732;10.550;2022-09-09T14:41:00;3.90;;;2.20;;
32236;SDS011;18726;44.732;10.550;2022-09-09T14:44:06;3.80;;;2.28;;
32236;SDS011;18726;44.732;10.550;2022-09-09T14:47:09;4.30;;;2.38;;
32236;SDS011;18726;44.732;10.550;2022-09-09T14:50:13;6.30;;;2.08;;
32236;SDS011;18726;44.732;10.550;2022-09-09T14:53:16;6.25;;;2.22;;
32236;SDS011;18726;44.732;10.550;2022-09-09T14:56:21;3.35;;;1.88;;
32236;SDS011;18726;44.732;10.550;2022-09-09T14:59:27;4.07;;;2.40;;
32236;SDS011;18726;44.732;10.550;2022-09-09T15:02:31;2.17;;;1.98;;
32236;SDS011;18726;44.732;10.550;2022-09-09T15:05:35;3.72;;;1.77;;
32236;SDS011;18726;44.732;10.550;2022-09-09T15:08:40;4.20;;;2.40;;
32236;SDS011;18726;44.732;10.550;2022-09-09T15:11:45;6.43;;;2.72;;
32236;SDS011;18726;44.732;10.550;2022-09-09T15:14:49;3.80;;;2.88;;
32236;SDS011;18726;44.732;10.550;2022-09-09T15:17:53;5.85;;;2.75;;
32236;SDS011;18726;44.732;10.550;2022-09-09T15:20:57;8.00;;;2.97;;
32236;SDS011;18726;44.732;10.550;2022-09-09T15:24:01;4.53;;;2.72;;
32236;SDS011;18726;44.732;10.550;2022-09-09T15:27:07;5.28;;;2.75;;
32236;SDS011;18726;44.732;10.550;2022-09-09T15:30:11;6.43;;;2.72;;
32236;SDS011;18726;44.732;10.550;2022-09-09T15:33:15;9.15;;;3.50;;
32236;SDS011;18726;44.732;10.550;2022-09-09T15:36:20;4.43;;;2.25;;
32236;SDS011;18726;44.732;10.550;2022-09-09T15:39:25;3.75;;;2.67;;
32236;SDS011;18726;44.732;10.550;2022-09-09T15:42:29;3.28;;;2.53;;
32236;SDS011;18726;44.732;10.550;2022-09-09T15:45:33;7.85;;;2.58;;
32236;SDS011;18726;44.732;10.550;2022-09-09T15:48:37;4.30;;;2.65;;
32236;SDS011;18726;44.732;10.550;2022-09-09T15:51:42;4.13;;;2.30;;
32236;SDS011;18726;44.732;10.550;2022-09-09T15:54:47;5.40;;;2.55;;
32236;SDS011;18726;44.732;10.550;2022-09-09T15:57:51;5.38;;;3.08;;
32236;SDS011;18726;44.732;10.550;2022-09-09T16:01:05;5.70;;;4.13;;
32236;SDS011;18726;44.732;10.550;2022-09-09T16:04:12;7.72;;;5.35;;
32236;SDS011;18726;44.732;10.550;2022-09-09T16:07:15;6.40;;;4.65;;
32236;SDS011;18726;44.732;10.550;2022-09-09T16:10:20;5.30;;;4.57;;
32236;SDS011;18726;44.732;10.550;2022-09-09T16:13:24;5.75;;;4.18;;
32236;SDS011;18726;44.732;10.550;2022-09-09T16:16:28;12.13;;;4.57;;
32236;SDS011;18726;44.732;10.550;2022-09-09T16:19:33;8.80;;;3.70;;
32236;SDS011;18726;44.732;10.550;2022-09-09T16:22:37;7.15;;;3.38;;
32236;SDS011;18726;44.732;10.550;2022-09-09T16:25:41;6.10;;;3.70;;
32236;SDS011;18726;44.732;10.550;2022-09-09T16:28:45;4.20;;;3.80;;
32236;SDS011;18726;44.732;10.550;2022-09-09T16:31:50;6.03;;;3.67;;
32236;SDS011;18726;44.732;10.550;2022-09-09T16:34:55;8.57;;;4.20;;
32236;SDS011;18726;44.732;10.550;2022-09-09T16:37:58;8.18;;;3.70;;
32236;SDS011;18726;44.732;10.550;2022-09-09T16:41:02;9.45;;;4.60;;
32236;SDS011;18726;44.732;10.550;2022-09-09T16:44:09;4.95;;;3.78;;
32236;SDS011;18726;44.732;10.550;2022-09-09T16:47:14;6.93;;;4.03;;
32236;SDS011;18726;44.732;10.550;2022-09-09T16:50:17;11.93;;;4.60;;
32236;SDS011;18726;44.732;10.550;2022-09-09T16:53:21;5.80;;;4.25;;
32236;SDS011;18726;44.732;10.550;2022-09-09T16:56:26;7.15;;;3.97;;
32236;SDS011;18726;44.732;10.550;2022-09-09T16:59:31;7.15;;;4.20;;
32236;SDS011;18726;44.732;10.550;2022-09-09T17:02:35;5.30;;;4.00;;
32236;SDS011;18726;44.732;10.550;2022-09-09T17:05:41;7.07;;;3.42;;
32236;SDS011;18726;44.732;10.550;2022-09-09T17:08:45;4.40;;;3.83;;
32236;SDS011;18726;44.732;10.550;2022-09-09T17:11:49;5.15;;;3.58;;
32236;SDS011;18726;44.732;10.550;2022-09-09T17:14:55;5.75;;;3.67;;
32236;SDS011;18726;44.732;10.550;2022-09-09T17:17:59;4.93;;;3.58;;
32236;SDS011;18726;44.732;10.550;2022-09-09T17:21:07;7.05;;;3.20;;
32236;SDS011;18726;44.732;10.550;2022-09-09T17:24:13;3.93;;;3.10;;
32236;SDS011;18726;44.732;10.550;2022-09-09T17:27:18;5.15;;;3.30;;
32236;SDS011;18726;44.732;10.550;2022-09-09T17:30:22;3.72;;;3.38;;
32236;SDS011;18726;44.732;10.550;2022-09-09T17:33:26;6.13;;;3.47;;
32236;SDS011;18726;44.732;10.550;2022-09-09T17:36:32;4.00;;;3.08;;
32236;SDS011;18726;44.732;10.550;2022-09-09T17:39:37;8.20;;;3.75;;
32236;SDS011;18726;44.732;10.550;2022-09-09T17:42:41;5.25;;;3.35;;
32236;SDS011;18726;44.732;10.550;2022-09-09T17:45:45;5.50;;;3.63;;
32236;SDS011;18726;44.732;10.550;2022-09-09T17:48:50;8.95;;;3.25;;
32236;SDS011;18726;44.732;10.550;2022-09-09T17:51:56;3.60;;;3.05;;
32236;SDS011;18726;44.732;10.550;2022-09-09T17:55:00;4.60;;;3.63;;
32236;SDS011;18726;44.732;10.550;2022-09-09T17:58:04;5.32;;;2.90;;
32236;SDS011;18726;44.732;10.550;2022-09-09T18:01:09;3.83;;;3.42;;
32236;SDS011;18726;44.732;10.550;2022-09-09T18:04:16;4.20;;;3.28;;
32236;SDS011;18726;44.732;10.550;2022-09-09T18:07:20;3.65;;;2.88;;
32236;SDS011;18726;44.732;10.550;2022-09-09T18:10:24;5.05;;;3.38;;
32236;SDS011;18726;44.732;10.550;2022-09-09T18:13:27;4.25;;;2.92;;
32236;SDS011;18726;44.732;10.550;2022-09-09T18:16:35;2.75;;;2.55;;
32236;SDS011;18726;44.732;10.550;2022-09-09T18:19:48;6.32;;;3.20;;
32236;SDS011;18726;44.732;10.550;2022-09-09T18:22:52;4.53;;;3.08;;
32236;SDS011;18726;44.732;10.550;2022-09-09T18:25:57;3.88;;;3.13;;
32236;SDS011;18726;44.732;10.550;2022-09-09T18:29:03;4.70;;;3.47;;
32236;SDS011;18726;44.732;10.550;2022-09-09T18:32:10;5.90;;;3.70;;
32236;SDS011;18726;44.732;10.550;2022-09-09T18:35:14;4.25;;;3.28;;
32236;SDS011;18726;44.732;10.550;2022-09-09T18:38:19;7.43;;;4.22;;
32236;SDS011;18726;44.732;10.550;2022-09-09T18:41:27;6.03;;;4.00;;
32236;SDS011;18726;44.732;10.550;2022-09-09T18:44:32;8.30;;;3.60;;
32236;SDS011;18726;44.732;10.550;2022-09-09T18:47:37;5.85;;;3.50;;
32236;SDS011;18726;44.732;10.550;2022-09-09T18:50:42;3.38;;;3.08;;
32236;SDS011;18726;44.732;10.550;2022-09-09T18:53:49;10.00;;;4.93;;
32236;SDS011;18726;44.732;10.550;2022-09-09T18:56:54;6.95;;;4.20;;
32236;SDS011;18726;44.732;10.550;2022-09-09T18:59:58;7.88;;;4.25;;
32236;SDS011;18726;44.732;10.550;2022-09-09T19:03:02;5.32;;;3.97;;
32236;SDS011;18726;44.732;10.550;2022-09-09T19:06:08;6.70;;;3.95;;
32236;SDS011;18726;44.732;10.550;2022-09-09T19:09:17;3.22;;;2.90;;
32236;SDS011;18726;44.732;10.550;2022-09-09T19:12:21;4.25;;;3.22;;
32236;SDS011;18726;44.732;10.550;2022-09-09T19:15:25;6.82;;;3.90;;
32236;SDS011;18726;44.732;10.550;2022-09-09T19:18:28;4.00;;;2.95;;
32236;SDS011;18726;44.732;10.550;2022-09-09T19:21:33;3.42;;;2.88;;
32236;SDS011;18726;44.732;10.550;2022-09-09T19:24:39;5.57;;;3.00;;
32236;SDS011;18726;44.732;10.550;2022-09-09T19:27:43;4.55;;;3.72;;
32236;SDS011;18726;44.732;10.550;2022-09-09T19:30:47;5.38;;;2.97;;
32236;SDS011;18726;44.732;10.550;2022-09-09T19:33:52;6.47;;;2.63;;
32236;SDS011;18726;44.732;10.550;2022-09-09T19:36:57;5.43;;;3.10;;
32236;SDS011;18726;44.732;10.550;2022-09-09T19:40:02;6.05;;;3.85;;
32236;SDS011;18726;44.732;10.550;2022-09-09T19:43:10;4.45;;;3.13;;
32236;SDS011;18726;44.732;10.550;2022-09-09T19:46:13;2.90;;;2.50;;
32236;SDS011;18726;44.732;10.550;2022-09-09T19:49:18;4.00;;;2.75;;
32236;SDS011;18726;44.732;10.550;2022-09-09T19:52:22;3.92;;;2.53;;
32236;SDS011;18726;44.732;10.550;2022-09-09T19:55:25;6.13;;;2.80;;
32236;SDS011;18726;44.732;10.550;2022-09-09T19:58:29;3.92;;;2.67;;
32236;SDS011;18726;44.732;10.550;2022-09-09T20:01:38;8.43;;;2.53;;